(°C)
17°
16°
15°
14°
14°
13°
13°
(°C)
17°
16°
15°
14°
14°
13°
13°
DDK
NÉN
NÉN
ÉNy
ÉNy
ÉÉN
ÉNy
(km/h)
3-12
2-6
3-7
3-4
3-5
3-5
3-5
(mm)
0
0
0
0
0
0
0
(%)
0
0
0
0
0
0
0

Napfelkelte

/ -35.1°
sun-icon
UV 3
08:23
19:14
Hold (fogyó félhold) (255°)
00:00
14:36

METAR Alcantarilla (LERI)-ért

Idő Feltételek Hőmérséklet/
Harmatpont
Szél Látási viszonyok Időjárás Felhők Légnyomás Módosítás Nyers
VFR 18°C / 12°C 110º variable 070º to 130º 5kt >10km - Few Clouds 4600ft 1020 No Significant change LERI 271800Z 11005KT 070V130 9999 FEW046 18/12 Q1020 NOSIG
VFR 18°C / 12°C 90º variable 070º to 130º 5kt >10km - Few Clouds 4500ft 1020 No Significant change LERI 271730Z 09005KT 070V130 9999 FEW045 18/12 Q1020 NOSIG
VFR 19°C / 13°C 130º 4kt >10km - Few Clouds 4600ft 1020 No Significant change LERI 271700Z 13004KT 9999 FEW046 19/13 Q1020 NOSIG
VFR 21°C / 14°C 150º variable 110º to 170º 5kt >10km - Few Clouds 4400ft 1020 No Significant change LERI 271630Z 15005KT 110V170 9999 FEW044 21/14 Q1020 NOSIG
VFR 21°C / 13°C 160º variable 130º to 200º 6kt >10km - Few Clouds 4300ft 1020 No Significant change LERI 271600Z 16006KT 130V200 9999 FEW043 21/13 Q1020 NOSIG
VFR 22°C / 12°C 130º variable 080º to 160º 5kt >10km - Few Clouds 4000ft 1020 No Significant change LERI 271530Z 13005KT 080V160 9999 FEW040 22/12 Q1020 NOSIG
VFR 22°C / 12°C 150º variable 080º to 170º 6kt >10km - Few Clouds 4200ft 1020 No Significant change LERI 271500Z 15006KT 080V170 9999 FEW042 22/12 Q1020 NOSIG
VFR 23°C / 12°C 120º variable 060º to 170º 5kt >10km - Scattered Clouds 4200ft 1020 No Significant change LERI 271430Z 12005KT 060V170 9999 SCT042 23/12 Q1020 NOSIG
VFR 22°C / 12°C 90º variable 060º to 130º 5kt >10km - Scattered Clouds 3900ft 1020 No Significant change LERI 271400Z 09005KT 060V130 9999 SCT039 22/12 Q1020 NOSIG
VFR 21°C / 12°C 80º variable 050º to 110º 3kt >10km - Scattered Clouds 3800ft 1021 No Significant change LERI 271330Z 08003KT 050V110 9999 SCT038 21/12 Q1021 NOSIG
VFR 23°C / 12°C variable 3kt >10km - Scattered Clouds 3500ft 1021 No Significant change LERI 271300Z VRB03KT 9999 SCT035 23/12 Q1021 NOSIG
VFR 22°C / 13°C variable 4kt >10km - Scattered Clouds 3300ft 1021 No Significant change LERI 271230Z VRB04KT 9999 SCT033 22/13 Q1021 NOSIG
VFR 22°C / 14°C 130º variable 080º to 230º 4kt >10km - Few Clouds 3000ft
Scattered Clouds 3700ft
1022 No Significant change LERI 271200Z 13004KT 080V230 9999 FEW030 SCT037 22/14 Q1022 NOSIG
VFR 21°C / 13°C variable 1kt >10km - Scattered Clouds 2700ft 1022 No Significant change LERI 271130Z VRB01KT 9999 SCT027 21/13 Q1022 NOSIG
VFR 20°C / 14°C variable 1kt >10km - Few Clouds 2500ft
Scattered Clouds 2900ft
1023 No Significant change LERI 271100Z VRB01KT 9999 FEW025 SCT029 20/14 Q1023 NOSIG
VFR 20°C / 14°C variable 1kt >10km - Few Clouds 2500ft 1023 No Significant change LERI 271030Z VRB01KT 9999 FEW025 20/14 Q1023 NOSIG
VFR 19°C / 14°C 40º variable 340º to 100º 3kt >10km - Few Clouds 2400ft 1023 No Significant change LERI 271000Z 04003KT 340V100 9999 FEW024 19/14 Q1023 NOSIG
VFR 19°C / 14°C variable 2kt >10km - Few Clouds 2200ft 1023 No Significant change LERI 270930Z VRB02KT 9999 FEW022 19/14 Q1023 NOSIG
VFR 18°C / 15°C variable 1kt >10km - Few Clouds 1400ft 1023 No Significant change LERI 270900Z VRB01KT 9999 FEW014 18/15 Q1023 NOSIG
VFR 17°C / 15°C variable 0kt 9000m - Few Clouds 800ft 1023 No Significant change LERI 270830Z 00000KT 9000 FEW008 17/15 Q1023 NOSIG
VFR 16°C / 15°C variable 0kt 9000m - Few Clouds 400ft
Scattered Clouds 3800ft
1023 No Significant change LERI 270800Z 00000KT 9000 FEW004 SCT038 16/15 Q1023 NOSIG
MVFR 16°C / 15°C variable 0kt 7000m - Few Clouds 700ft
Scattered Clouds 3400ft
Broken Clouds 3900ft
1023 No Significant change LERI 270730Z 00000KT 7000 FEW007 SCT034 BKN039 16/15 Q1023 NOSIG
MVFR 15°C / 14°C variable 2kt 7000m - Few Clouds 1000ft
Scattered Clouds 3300ft
1022 No Significant change LERI 270700Z VRB02KT 7000 FEW010 SCT033 15/14 Q1022 RERA NOSIG
MVFR 15°C / 14°C variable 2kt 8000m Heavy Rain 7.00mm precipitation Vertical Visibility of 0ft.
Overcast 3000ft
1022 No Significant change LERI 270630Z VRB02KT 8000 +RA BKN026 OVC030 15/14 Q1022 NOSIG

VFR

18°C / 12°C

[Több]
Szél 110º variable 070º to 130º 5kt
Látási viszonyok >10km
Időjárás -
Felhők Few Clouds 4600ft
Légnyomás 1020
Módosítás No Significant change
Nyers LERI 271800Z 11005KT 070V130 9999 FEW046 18/12 Q1020 NOSIG

VFR

18°C / 12°C

[Több]
Szél 90º variable 070º to 130º 5kt
Látási viszonyok >10km
Időjárás -
Felhők Few Clouds 4500ft
Légnyomás 1020
Módosítás No Significant change
Nyers LERI 271730Z 09005KT 070V130 9999 FEW045 18/12 Q1020 NOSIG

VFR

19°C / 13°C

[Több]
Szél 130º 4kt
Látási viszonyok >10km
Időjárás -
Felhők Few Clouds 4600ft
Légnyomás 1020
Módosítás No Significant change
Nyers LERI 271700Z 13004KT 9999 FEW046 19/13 Q1020 NOSIG

VFR

21°C / 14°C

[Több]
Szél 150º variable 110º to 170º 5kt
Látási viszonyok >10km
Időjárás -
Felhők Few Clouds 4400ft
Légnyomás 1020
Módosítás No Significant change
Nyers LERI 271630Z 15005KT 110V170 9999 FEW044 21/14 Q1020 NOSIG

VFR

21°C / 13°C

[Több]
Szél 160º variable 130º to 200º 6kt
Látási viszonyok >10km
Időjárás -
Felhők Few Clouds 4300ft
Légnyomás 1020
Módosítás No Significant change
Nyers LERI 271600Z 16006KT 130V200 9999 FEW043 21/13 Q1020 NOSIG

VFR

22°C / 12°C

[Több]
Szél 130º variable 080º to 160º 5kt
Látási viszonyok >10km
Időjárás -
Felhők Few Clouds 4000ft
Légnyomás 1020
Módosítás No Significant change
Nyers LERI 271530Z 13005KT 080V160 9999 FEW040 22/12 Q1020 NOSIG

VFR

22°C / 12°C

[Több]
Szél 150º variable 080º to 170º 6kt
Látási viszonyok >10km
Időjárás -
Felhők Few Clouds 4200ft
Légnyomás 1020
Módosítás No Significant change
Nyers LERI 271500Z 15006KT 080V170 9999 FEW042 22/12 Q1020 NOSIG

VFR

23°C / 12°C

[Több]
Szél 120º variable 060º to 170º 5kt
Látási viszonyok >10km
Időjárás -
Felhők Scattered Clouds 4200ft
Légnyomás 1020
Módosítás No Significant change
Nyers LERI 271430Z 12005KT 060V170 9999 SCT042 23/12 Q1020 NOSIG

VFR

22°C / 12°C

[Több]
Szél 90º variable 060º to 130º 5kt
Látási viszonyok >10km
Időjárás -
Felhők Scattered Clouds 3900ft
Légnyomás 1020
Módosítás No Significant change
Nyers LERI 271400Z 09005KT 060V130 9999 SCT039 22/12 Q1020 NOSIG

VFR

21°C / 12°C

[Több]
Szél 80º variable 050º to 110º 3kt
Látási viszonyok >10km
Időjárás -
Felhők Scattered Clouds 3800ft
Légnyomás 1021
Módosítás No Significant change
Nyers LERI 271330Z 08003KT 050V110 9999 SCT038 21/12 Q1021 NOSIG

VFR

23°C / 12°C

[Több]
Szél variable 3kt
Látási viszonyok >10km
Időjárás -
Felhők Scattered Clouds 3500ft
Légnyomás 1021
Módosítás No Significant change
Nyers LERI 271300Z VRB03KT 9999 SCT035 23/12 Q1021 NOSIG

VFR

22°C / 13°C

[Több]
Szél variable 4kt
Látási viszonyok >10km
Időjárás -
Felhők Scattered Clouds 3300ft
Légnyomás 1021
Módosítás No Significant change
Nyers LERI 271230Z VRB04KT 9999 SCT033 22/13 Q1021 NOSIG

VFR

22°C / 14°C

[Több]
Szél 130º variable 080º to 230º 4kt
Látási viszonyok >10km
Időjárás -
Felhők Few Clouds 3000ft
Scattered Clouds 3700ft
Légnyomás 1022
Módosítás No Significant change
Nyers LERI 271200Z 13004KT 080V230 9999 FEW030 SCT037 22/14 Q1022 NOSIG

VFR

21°C / 13°C

[Több]
Szél variable 1kt
Látási viszonyok >10km
Időjárás -
Felhők Scattered Clouds 2700ft
Légnyomás 1022
Módosítás No Significant change
Nyers LERI 271130Z VRB01KT 9999 SCT027 21/13 Q1022 NOSIG

VFR

20°C / 14°C

[Több]
Szél variable 1kt
Látási viszonyok >10km
Időjárás -
Felhők Few Clouds 2500ft
Scattered Clouds 2900ft
Légnyomás 1023
Módosítás No Significant change
Nyers LERI 271100Z VRB01KT 9999 FEW025 SCT029 20/14 Q1023 NOSIG

VFR

20°C / 14°C

[Több]
Szél variable 1kt
Látási viszonyok >10km
Időjárás -
Felhők Few Clouds 2500ft
Légnyomás 1023
Módosítás No Significant change
Nyers LERI 271030Z VRB01KT 9999 FEW025 20/14 Q1023 NOSIG

VFR

19°C / 14°C

[Több]
Szél 40º variable 340º to 100º 3kt
Látási viszonyok >10km
Időjárás -
Felhők Few Clouds 2400ft
Légnyomás 1023
Módosítás No Significant change
Nyers LERI 271000Z 04003KT 340V100 9999 FEW024 19/14 Q1023 NOSIG

VFR

19°C / 14°C

[Több]
Szél variable 2kt
Látási viszonyok >10km
Időjárás -
Felhők Few Clouds 2200ft
Légnyomás 1023
Módosítás No Significant change
Nyers LERI 270930Z VRB02KT 9999 FEW022 19/14 Q1023 NOSIG

VFR

18°C / 15°C

[Több]
Szél variable 1kt
Látási viszonyok >10km
Időjárás -
Felhők Few Clouds 1400ft
Légnyomás 1023
Módosítás No Significant change
Nyers LERI 270900Z VRB01KT 9999 FEW014 18/15 Q1023 NOSIG

VFR

17°C / 15°C

[Több]
Szél variable 0kt
Látási viszonyok 9000m
Időjárás -
Felhők Few Clouds 800ft
Légnyomás 1023
Módosítás No Significant change
Nyers LERI 270830Z 00000KT 9000 FEW008 17/15 Q1023 NOSIG

VFR

16°C / 15°C

[Több]
Szél variable 0kt
Látási viszonyok 9000m
Időjárás -
Felhők Few Clouds 400ft
Scattered Clouds 3800ft
Légnyomás 1023
Módosítás No Significant change
Nyers LERI 270800Z 00000KT 9000 FEW004 SCT038 16/15 Q1023 NOSIG

MVFR

16°C / 15°C

[Több]
Szél variable 0kt
Látási viszonyok 7000m
Időjárás -
Felhők Few Clouds 700ft
Scattered Clouds 3400ft
Broken Clouds 3900ft
Légnyomás 1023
Módosítás No Significant change
Nyers LERI 270730Z 00000KT 7000 FEW007 SCT034 BKN039 16/15 Q1023 NOSIG

MVFR

15°C / 14°C

[Több]
Szél variable 2kt
Látási viszonyok 7000m
Időjárás -
Felhők Few Clouds 1000ft
Scattered Clouds 3300ft
Légnyomás 1022
Módosítás No Significant change
Nyers LERI 270700Z VRB02KT 7000 FEW010 SCT033 15/14 Q1022 RERA NOSIG

MVFR

15°C / 14°C

[Több]
Szél variable 2kt
Látási viszonyok 8000m
Időjárás Heavy Rain 7.00mm precipitation
Felhők Vertical Visibility of 0ft.
Overcast 3000ft
Légnyomás 1022
Módosítás No Significant change
Nyers LERI 270630Z VRB02KT 8000 +RA BKN026 OVC030 15/14 Q1022 NOSIG

TAF Alcantarilla (LERI)-ért

From till


Maximum Temperature 24ºC on . Minimum Temperature 14ºC on .
From till Wind variable 3kt. Visibility 10km or more. Few Clouds 3500ft.
With 40% probability, Temporarly from till Wind 180º 10kt.

Nyers: TAF LERI 271700Z 2718/2818 VRB03KT 9999 FEW035 TX24/2814Z TN14/2806Z PROB40 TEMPO 2815/2818 18010KT

Aktuális műholdas és esőképek ezen a helyen: Alcantarilla, Spanyolország

A helyszín jelölő a következő helyen van elhelyezve: Alcantarilla. [Több]

A valós idejű műholdas kép ötvözi a nappali látható fényt az éjszakai infravörös sugárzással. Éjjel a kép nem sötét, mivel az infravörös sugárzás képes érzékelni a hőmérséklet-különbségeket. Sajnos az alacsony felhőket és a ködöt nehéz megkülönböztetni a talaj hőmérsékletétől, így az éjszaka folyamán szinte láthatatlanok lehetnek. A Meteosat európai műholdképei valós időben frissülnek minden 5 percben. A GOES-16/GOES-17 (Észak- és Dél-Amerika) és Himawari (Ázsia) képei 10 percenként frissülnek.

A csapadékot radarok és műholdak segítségével határozzák meg. A műholdak által mért éjjeli csapadék becslése kevésbé pontos, mint a nappali. A narancssárga keresztek jelölik azokat a helyeket, ahol villámlás észlelhető (Európa felett).

Minden jog fenntartva 2021 EUMETSAT / meteoblue. nowcast által biztosított villámlással kapcsolatos adatok.

Radarkép ehhez: Alcantarilla

Szitáló eső
Enyhe
Mérsékelt
Erős
Nagyon nehéz
Jégeső

A helyzetjelző helye: Alcantarilla. Ez az animáció bemutatja a csapadékradart az elmúlt 1 órára vonatkozóan. A szitáló eső vagy enyhe hóesés láthatatlan lehet a radar számára. A csapadék intenzitása színkóddal van jelölve, a világoskéktől a narancssárgáig.
Radar data source: AEMET.